sensor_id;sensor_type;location;lat;lon;timestamp;P1;durP1;ratioP1;P2;durP2;ratioP2
68284;SDS011;55114;52.052;5.238;2022-11-18T00:01:04;4.85;;;1.88;;
68284;SDS011;55114;52.052;5.238;2022-11-18T00:03:32;5.63;;;1.83;;
68284;SDS011;55114;52.052;5.238;2022-11-18T00:06:00;7.75;;;2.00;;
68284;SDS011;55114;52.052;5.238;2022-11-18T00:08:27;5.80;;;2.00;;
68284;SDS011;55114;52.052;5.238;2022-11-18T00:10:55;6.75;;;2.10;;
68284;SDS011;55114;52.052;5.238;2022-11-18T00:13:22;10.85;;;2.10;;
68284;SDS011;55114;52.052;5.238;2022-11-18T00:16:11;8.10;;;2.10;;
68284;SDS011;55114;52.052;5.238;2022-11-18T00:18:38;6.95;;;1.85;;
68284;SDS011;55114;52.052;5.238;2022-11-18T00:21:06;4.78;;;2.20;;
68284;SDS011;55114;52.052;5.238;2022-11-18T00:23:34;6.15;;;2.08;;
68284;SDS011;55114;52.052;5.238;2022-11-18T00:26:05;6.05;;;2.30;;
68284;SDS011;55114;52.052;5.238;2022-11-18T00:28:33;7.93;;;2.23;;
68284;SDS011;55114;52.052;5.238;2022-11-18T00:31:01;6.25;;;2.00;;
68284;SDS011;55114;52.052;5.238;2022-11-18T00:33:29;5.43;;;2.10;;
68284;SDS011;55114;52.052;5.238;2022-11-18T00:35:56;7.10;;;2.22;;
68284;SDS011;55114;52.052;5.238;2022-11-18T00:38:24;7.10;;;2.20;;
68284;SDS011;55114;52.052;5.238;2022-11-18T00:40:59;6.20;;;1.97;;
68284;SDS011;55114;52.052;5.238;2022-11-18T00:43:26;5.97;;;2.25;;
68284;SDS011;55114;52.052;5.238;2022-11-18T00:45:54;6.95;;;2.30;;
68284;SDS011;55114;52.052;5.238;2022-11-18T00:48:22;6.55;;;2.05;;
68284;SDS011;55114;52.052;5.238;2022-11-18T00:50:50;6.55;;;2.30;;
68284;SDS011;55114;52.052;5.238;2022-11-18T00:53:18;8.00;;;2.23;;
68284;SDS011;55114;52.052;5.238;2022-11-18T00:55:46;5.70;;;2.15;;
68284;SDS011;55114;52.052;5.238;2022-11-18T00:58:13;6.97;;;2.35;;
68284;SDS011;55114;52.052;5.238;2022-11-18T01:00:41;8.07;;;2.30;;
68284;SDS011;55114;52.052;5.238;2022-11-18T01:03:09;7.20;;;2.60;;
68284;SDS011;55114;52.052;5.238;2022-11-18T01:05:37;6.10;;;2.20;;
68284;SDS011;55114;52.052;5.238;2022-11-18T01:08:05;7.57;;;2.38;;
68284;SDS011;55114;52.052;5.238;2022-11-18T01:10:34;6.60;;;2.42;;
68284;SDS011;55114;52.052;5.238;2022-11-18T01:13:02;5.28;;;2.15;;
68284;SDS011;55114;52.052;5.238;2022-11-18T01:15:49;6.93;;;2.40;;
68284;SDS011;55114;52.052;5.238;2022-11-18T01:18:17;7.50;;;2.33;;
68284;SDS011;55114;52.052;5.238;2022-11-18T01:20:46;7.57;;;2.40;;
68284;SDS011;55114;52.052;5.238;2022-11-18T01:23:13;6.45;;;2.38;;
68284;SDS011;55114;52.052;5.238;2022-11-18T01:25:41;6.18;;;2.40;;
68284;SDS011;55114;52.052;5.238;2022-11-18T01:28:09;9.05;;;2.40;;
68284;SDS011;55114;52.052;5.238;2022-11-18T01:30:37;9.57;;;2.03;;
68284;SDS011;55114;52.052;5.238;2022-11-18T01:33:05;4.90;;;2.15;;
68284;SDS011;55114;52.052;5.238;2022-11-18T01:35:35;7.53;;;2.40;;
68284;SDS011;55114;52.052;5.238;2022-11-18T01:38:03;10.77;;;2.45;;
68284;SDS011;55114;52.052;5.238;2022-11-18T01:40:31;7.13;;;2.38;;
68284;SDS011;55114;52.052;5.238;2022-11-18T01:42:58;6.40;;;2.20;;
68284;SDS011;55114;52.052;5.238;2022-11-18T01:47:58;6.65;;;2.55;;
68284;SDS011;55114;52.052;5.238;2022-11-18T01:50:28;8.35;;;2.45;;
68284;SDS011;55114;52.052;5.238;2022-11-18T01:52:57;9.10;;;2.90;;
68284;SDS011;55114;52.052;5.238;2022-11-18T01:55:26;6.17;;;2.40;;
68284;SDS011;55114;52.052;5.238;2022-11-18T01:58:03;7.50;;;2.50;;
68284;SDS011;55114;52.052;5.238;2022-11-18T02:00:32;7.18;;;2.70;;
68284;SDS011;55114;52.052;5.238;2022-11-18T02:02:59;7.35;;;2.80;;
68284;SDS011;55114;52.052;5.238;2022-11-18T02:05:28;6.32;;;2.50;;
68284;SDS011;55114;52.052;5.238;2022-11-18T02:07:56;8.17;;;2.50;;
68284;SDS011;55114;52.052;5.238;2022-11-18T02:10:24;6.93;;;2.60;;
68284;SDS011;55114;52.052;5.238;2022-11-18T02:12:51;6.50;;;2.80;;
68284;SDS011;55114;52.052;5.238;2022-11-18T02:15:23;8.63;;;2.83;;
68284;SDS011;55114;52.052;5.238;2022-11-18T02:17:57;6.78;;;2.60;;
68284;SDS011;55114;52.052;5.238;2022-11-18T02:33:34;7.97;;;2.70;;
68284;SDS011;55114;52.052;5.238;2022-11-18T02:36:06;8.95;;;2.75;;
68284;SDS011;55114;52.052;5.238;2022-11-18T02:38:35;8.32;;;2.83;;
68284;SDS011;55114;52.052;5.238;2022-11-18T02:41:09;9.10;;;2.70;;
68284;SDS011;55114;52.052;5.238;2022-11-18T02:43:39;7.82;;;2.85;;
68284;SDS011;55114;52.052;5.238;2022-11-18T02:46:10;7.90;;;2.83;;
68284;SDS011;55114;52.052;5.238;2022-11-18T02:48:40;6.15;;;2.60;;
68284;SDS011;55114;52.052;5.238;2022-11-18T02:51:08;8.32;;;2.90;;
68284;SDS011;55114;52.052;5.238;2022-11-18T02:53:38;7.47;;;2.70;;
68284;SDS011;55114;52.052;5.238;2022-11-18T02:56:06;10.65;;;3.03;;
68284;SDS011;55114;52.052;5.238;2022-11-18T02:58:34;8.47;;;2.57;;
68284;SDS011;55114;52.052;5.238;2022-11-18T03:01:01;7.25;;;2.92;;
68284;SDS011;55114;52.052;5.238;2022-11-18T03:03:30;7.45;;;3.00;;
68284;SDS011;55114;52.052;5.238;2022-11-18T03:08:45;7.40;;;2.92;;
68284;SDS011;55114;52.052;5.238;2022-11-18T03:11:23;6.70;;;3.00;;
68284;SDS011;55114;52.052;5.238;2022-11-18T03:19:20;6.57;;;2.55;;
68284;SDS011;55114;52.052;5.238;2022-11-18T03:21:51;9.73;;;3.05;;
68284;SDS011;55114;52.052;5.238;2022-11-18T03:24:24;8.80;;;2.70;;
68284;SDS011;55114;52.052;5.238;2022-11-18T03:26:55;9.02;;;2.95;;
68284;SDS011;55114;52.052;5.238;2022-11-18T03:29:28;9.60;;;3.03;;
68284;SDS011;55114;52.052;5.238;2022-11-18T03:32:02;9.70;;;3.00;;
68284;SDS011;55114;52.052;5.238;2022-11-18T03:34:30;7.50;;;2.85;;
68284;SDS011;55114;52.052;5.238;2022-11-18T03:37:00;8.43;;;2.97;;
68284;SDS011;55114;52.052;5.238;2022-11-18T03:39:40;9.25;;;3.10;;
68284;SDS011;55114;52.052;5.238;2022-11-18T03:44:43;6.53;;;2.50;;
68284;SDS011;55114;52.052;5.238;2022-11-18T03:47:52;7.38;;;2.72;;
68284;SDS011;55114;52.052;5.238;2022-11-18T03:50:21;8.70;;;2.90;;
68284;SDS011;55114;52.052;5.238;2022-11-18T03:52:49;7.80;;;2.80;;
68284;SDS011;55114;52.052;5.238;2022-11-18T03:55:18;8.13;;;3.00;;
68284;SDS011;55114;52.052;5.238;2022-11-18T04:00:31;8.38;;;2.97;;
68284;SDS011;55114;52.052;5.238;2022-11-18T04:02:59;8.33;;;2.90;;
68284;SDS011;55114;52.052;5.238;2022-11-18T04:05:26;8.02;;;2.88;;
68284;SDS011;55114;52.052;5.238;2022-11-18T04:08:00;8.80;;;3.05;;
68284;SDS011;55114;52.052;5.238;2022-11-18T04:10:30;7.82;;;2.80;;
68284;SDS011;55114;52.052;5.238;2022-11-18T04:13:00;9.00;;;3.00;;
68284;SDS011;55114;52.052;5.238;2022-11-18T04:15:32;8.00;;;3.10;;
68284;SDS011;55114;52.052;5.238;2022-11-18T04:17:59;6.55;;;2.75;;
68284;SDS011;55114;52.052;5.238;2022-11-18T04:20:27;8.45;;;3.10;;
68284;SDS011;55114;52.052;5.238;2022-11-18T04:22:54;9.73;;;3.28;;
68284;SDS011;55114;52.052;5.238;2022-11-18T04:25:22;7.13;;;2.80;;
68284;SDS011;55114;52.052;5.238;2022-11-18T04:27:52;8.43;;;3.00;;
68284;SDS011;55114;52.052;5.238;2022-11-18T04:30:19;10.48;;;3.53;;
68284;SDS011;55114;52.052;5.238;2022-11-18T04:32:47;7.50;;;2.90;;
68284;SDS011;55114;52.052;5.238;2022-11-18T04:35:14;8.88;;;2.97;;
68284;SDS011;55114;52.052;5.238;2022-11-18T04:37:42;8.00;;;3.10;;
68284;SDS011;55114;52.052;5.238;2022-11-18T04:40:09;6.80;;;2.77;;
68284;SDS011;55114;52.052;5.238;2022-11-18T04:42:37;9.20;;;3.08;;
68284;SDS011;55114;52.052;5.238;2022-11-18T04:45:05;7.57;;;2.90;;
68284;SDS011;55114;52.052;5.238;2022-11-18T04:47:32;8.73;;;2.97;;
68284;SDS011;55114;52.052;5.238;2022-11-18T04:50:00;8.30;;;2.92;;
68284;SDS011;55114;52.052;5.238;2022-11-18T04:52:27;9.67;;;3.03;;
68284;SDS011;55114;52.052;5.238;2022-11-18T04:54:55;8.60;;;2.90;;
68284;SDS011;55114;52.052;5.238;2022-11-18T04:57:22;7.20;;;3.05;;
68284;SDS011;55114;52.052;5.238;2022-11-18T04:59:49;10.48;;;2.70;;
68284;SDS011;55114;52.052;5.238;2022-11-18T05:02:17;8.07;;;2.95;;
68284;SDS011;55114;52.052;5.238;2022-11-18T05:04:44;9.47;;;3.10;;
68284;SDS011;55114;52.052;5.238;2022-11-18T05:07:12;7.25;;;2.78;;
68284;SDS011;55114;52.052;5.238;2022-11-18T05:09:40;9.60;;;3.03;;
68284;SDS011;55114;52.052;5.238;2022-11-18T05:12:09;10.85;;;2.92;;
68284;SDS011;55114;52.052;5.238;2022-11-18T05:14:56;9.73;;;3.30;;
68284;SDS011;55114;52.052;5.238;2022-11-18T05:17:23;9.53;;;3.40;;
68284;SDS011;55114;52.052;5.238;2022-11-18T05:19:51;7.90;;;2.90;;
68284;SDS011;55114;52.052;5.238;2022-11-18T05:22:18;8.23;;;2.97;;
68284;SDS011;55114;52.052;5.238;2022-11-18T05:24:45;10.23;;;3.47;;
68284;SDS011;55114;52.052;5.238;2022-11-18T05:27:13;6.80;;;2.83;;
68284;SDS011;55114;52.052;5.238;2022-11-18T05:29:40;9.77;;;2.70;;
68284;SDS011;55114;52.052;5.238;2022-11-18T05:32:08;7.68;;;3.00;;
68284;SDS011;55114;52.052;5.238;2022-11-18T05:34:35;7.32;;;2.83;;
68284;SDS011;55114;52.052;5.238;2022-11-18T05:37:02;8.07;;;2.60;;
68284;SDS011;55114;52.052;5.238;2022-11-18T05:39:30;7.32;;;2.75;;
68284;SDS011;55114;52.052;5.238;2022-11-18T05:41:58;7.97;;;2.70;;
68284;SDS011;55114;52.052;5.238;2022-11-18T05:44:44;8.45;;;2.28;;
68284;SDS011;55114;52.052;5.238;2022-11-18T05:47:12;7.65;;;2.90;;
68284;SDS011;55114;52.052;5.238;2022-11-18T05:49:39;7.88;;;2.80;;
68284;SDS011;55114;52.052;5.238;2022-11-18T05:52:06;7.55;;;2.75;;
68284;SDS011;55114;52.052;5.238;2022-11-18T05:54:34;7.20;;;2.60;;
68284;SDS011;55114;52.052;5.238;2022-11-18T05:57:04;6.95;;;2.80;;
68284;SDS011;55114;52.052;5.238;2022-11-18T05:59:31;8.98;;;2.80;;
68284;SDS011;55114;52.052;5.238;2022-11-18T06:01:59;9.27;;;2.63;;
68284;SDS011;55114;52.052;5.238;2022-11-18T06:04:31;6.65;;;2.80;;
68284;SDS011;55114;52.052;5.238;2022-11-18T06:07:01;10.10;;;2.70;;
68284;SDS011;55114;52.052;5.238;2022-11-18T06:09:31;9.40;;;2.83;;
68284;SDS011;55114;52.052;5.238;2022-11-18T06:11:59;8.00;;;2.83;;
68284;SDS011;55114;52.052;5.238;2022-11-18T06:14:36;7.95;;;2.78;;
68284;SDS011;55114;52.052;5.238;2022-11-18T06:17:05;8.90;;;2.90;;
68284;SDS011;55114;52.052;5.238;2022-11-18T06:19:34;6.53;;;2.50;;
68284;SDS011;55114;52.052;5.238;2022-11-18T06:22:02;8.68;;;2.72;;
68284;SDS011;55114;52.052;5.238;2022-11-18T06:24:29;8.38;;;2.58;;
68284;SDS011;55114;52.052;5.238;2022-11-18T06:26:57;8.25;;;2.80;;
68284;SDS011;55114;52.052;5.238;2022-11-18T06:29:25;8.57;;;2.60;;
68284;SDS011;55114;52.052;5.238;2022-11-18T06:31:53;7.27;;;2.33;;
68284;SDS011;55114;52.052;5.238;2022-11-18T06:34:20;9.13;;;2.75;;
68284;SDS011;55114;52.052;5.238;2022-11-18T06:36:47;7.22;;;2.70;;
68284;SDS011;55114;52.052;5.238;2022-11-18T06:39:14;8.65;;;2.72;;
68284;SDS011;55114;52.052;5.238;2022-11-18T06:41:42;8.77;;;2.97;;
68284;SDS011;55114;52.052;5.238;2022-11-18T06:44:10;9.57;;;2.80;;
68284;SDS011;55114;52.052;5.238;2022-11-18T06:46:38;7.68;;;2.75;;
68284;SDS011;55114;52.052;5.238;2022-11-18T06:49:20;6.72;;;2.88;;
68284;SDS011;55114;52.052;5.238;2022-11-18T06:51:48;7.35;;;2.53;;
68284;SDS011;55114;52.052;5.238;2022-11-18T06:54:15;8.27;;;2.63;;
68284;SDS011;55114;52.052;5.238;2022-11-18T06:56:42;10.07;;;2.90;;
68284;SDS011;55114;52.052;5.238;2022-11-18T06:59:09;8.32;;;2.30;;
68284;SDS011;55114;52.052;5.238;2022-11-18T07:01:37;10.68;;;2.75;;
68284;SDS011;55114;52.052;5.238;2022-11-18T07:04:04;9.32;;;2.72;;
68284;SDS011;55114;52.052;5.238;2022-11-18T07:06:32;11.02;;;2.65;;
68284;SDS011;55114;52.052;5.238;2022-11-18T07:09:00;9.77;;;2.60;;
68284;SDS011;55114;52.052;5.238;2022-11-18T07:11:27;7.72;;;3.00;;
68284;SDS011;55114;52.052;5.238;2022-11-18T07:13:55;9.10;;;2.70;;
68284;SDS011;55114;52.052;5.238;2022-11-18T07:16:23;8.68;;;2.95;;
68284;SDS011;55114;52.052;5.238;2022-11-18T07:18:50;9.07;;;2.95;;
68284;SDS011;55114;52.052;5.238;2022-11-18T07:21:19;9.67;;;2.90;;
68284;SDS011;55114;52.052;5.238;2022-11-18T07:23:46;9.23;;;2.92;;
68284;SDS011;55114;52.052;5.238;2022-11-18T07:26:14;6.55;;;2.92;;
68284;SDS011;55114;52.052;5.238;2022-11-18T07:28:41;10.07;;;3.40;;
68284;SDS011;55114;52.052;5.238;2022-11-18T07:31:12;8.70;;;3.05;;
68284;SDS011;55114;52.052;5.238;2022-11-18T07:33:40;9.07;;;2.77;;
68284;SDS011;55114;52.052;5.238;2022-11-18T07:36:09;10.35;;;3.25;;
68284;SDS011;55114;52.052;5.238;2022-11-18T07:38:37;10.50;;;3.35;;
68284;SDS011;55114;52.052;5.238;2022-11-18T07:41:14;7.40;;;3.00;;
68284;SDS011;55114;52.052;5.238;2022-11-18T07:43:42;10.23;;;3.08;;
68284;SDS011;55114;52.052;5.238;2022-11-18T07:46:22;8.70;;;2.63;;
68284;SDS011;55114;52.052;5.238;2022-11-18T07:48:51;8.30;;;3.40;;
68284;SDS011;55114;52.052;5.238;2022-11-18T07:51:19;8.48;;;3.40;;
68284;SDS011;55114;52.052;5.238;2022-11-18T07:53:47;9.55;;;3.47;;
68284;SDS011;55114;52.052;5.238;2022-11-18T07:56:14;8.15;;;3.20;;
68284;SDS011;55114;52.052;5.238;2022-11-18T07:58:42;8.50;;;3.00;;
68284;SDS011;55114;52.052;5.238;2022-11-18T08:01:13;9.27;;;3.65;;
68284;SDS011;55114;52.052;5.238;2022-11-18T08:03:41;8.48;;;3.05;;
68284;SDS011;55114;52.052;5.238;2022-11-18T08:06:09;7.75;;;3.00;;
68284;SDS011;55114;52.052;5.238;2022-11-18T08:08:37;9.73;;;3.45;;
68284;SDS011;55114;52.052;5.238;2022-11-18T08:11:05;7.70;;;3.10;;
68284;SDS011;55114;52.052;5.238;2022-11-18T08:13:32;7.38;;;3.08;;
68284;SDS011;55114;52.052;5.238;2022-11-18T08:16:00;9.23;;;3.03;;
68284;SDS011;55114;52.052;5.238;2022-11-18T08:18:28;11.68;;;2.75;;
68284;SDS011;55114;52.052;5.238;2022-11-18T08:20:59;9.82;;;3.00;;
68284;SDS011;55114;52.052;5.238;2022-11-18T08:23:27;9.03;;;3.00;;
68284;SDS011;55114;52.052;5.238;2022-11-18T08:26:01;8.57;;;3.10;;
68284;SDS011;55114;52.052;5.238;2022-11-18T08:28:28;9.80;;;3.00;;
68284;SDS011;55114;52.052;5.238;2022-11-18T08:30:56;10.10;;;3.15;;
68284;SDS011;55114;52.052;5.238;2022-11-18T08:33:23;7.50;;;2.70;;
68284;SDS011;55114;52.052;5.238;2022-11-18T08:35:50;11.33;;;3.53;;
68284;SDS011;55114;52.052;5.238;2022-11-18T08:38:17;6.95;;;3.10;;
68284;SDS011;55114;52.052;5.238;2022-11-18T08:40:45;10.10;;;3.53;;
68284;SDS011;55114;52.052;5.238;2022-11-18T08:43:13;6.40;;;2.83;;
68284;SDS011;55114;52.052;5.238;2022-11-18T08:45:40;9.75;;;3.35;;
68284;SDS011;55114;52.052;5.238;2022-11-18T08:48:07;7.13;;;3.00;;
68284;SDS011;55114;52.052;5.238;2022-11-18T08:50:35;6.25;;;3.13;;
68284;SDS011;55114;52.052;5.238;2022-11-18T08:53:02;7.03;;;2.92;;
68284;SDS011;55114;52.052;5.238;2022-11-18T08:55:29;9.35;;;2.90;;
68284;SDS011;55114;52.052;5.238;2022-11-18T08:57:57;6.88;;;2.85;;
68284;SDS011;55114;52.052;5.238;2022-11-18T09:00:24;8.77;;;2.97;;
68284;SDS011;55114;52.052;5.238;2022-11-18T09:02:51;8.25;;;3.20;;
68284;SDS011;55114;52.052;5.238;2022-11-18T09:05:18;7.93;;;3.03;;
68284;SDS011;55114;52.052;5.238;2022-11-18T09:07:46;10.45;;;3.40;;
68284;SDS011;55114;52.052;5.238;2022-11-18T09:10:13;11.88;;;3.17;;
68284;SDS011;55114;52.052;5.238;2022-11-18T09:12:40;9.50;;;3.60;;
68284;SDS011;55114;52.052;5.238;2022-11-18T09:15:08;7.93;;;3.20;;
68284;SDS011;55114;52.052;5.238;2022-11-18T09:17:40;9.02;;;3.20;;
68284;SDS011;55114;52.052;5.238;2022-11-18T09:20:07;9.63;;;3.30;;
68284;SDS011;55114;52.052;5.238;2022-11-18T09:22:35;7.25;;;3.20;;
68284;SDS011;55114;52.052;5.238;2022-11-18T09:25:04;8.13;;;3.10;;
68284;SDS011;55114;52.052;5.238;2022-11-18T09:27:31;8.35;;;3.10;;
68284;SDS011;55114;52.052;5.238;2022-11-18T09:29:58;9.25;;;3.20;;
68284;SDS011;55114;52.052;5.238;2022-11-18T09:32:26;5.72;;;2.58;;
68284;SDS011;55114;52.052;5.238;2022-11-18T09:34:53;10.30;;;3.55;;
68284;SDS011;55114;52.052;5.238;2022-11-18T09:37:20;9.23;;;3.33;;
68284;SDS011;55114;52.052;5.238;2022-11-18T09:39:47;6.95;;;3.03;;
68284;SDS011;55114;52.052;5.238;2022-11-18T09:42:38;8.98;;;3.78;;
68284;SDS011;55114;52.052;5.238;2022-11-18T09:45:22;8.13;;;2.95;;
68284;SDS011;55114;52.052;5.238;2022-11-18T09:47:50;7.53;;;2.97;;
68284;SDS011;55114;52.052;5.238;2022-11-18T09:50:19;9.07;;;3.23;;
68284;SDS011;55114;52.052;5.238;2022-11-18T09:53:19;8.27;;;3.55;;
68284;SDS011;55114;52.052;5.238;2022-11-18T09:55:47;7.63;;;3.47;;
68284;SDS011;55114;52.052;5.238;2022-11-18T09:58:24;9.50;;;3.50;;
68284;SDS011;55114;52.052;5.238;2022-11-18T10:00:54;9.32;;;3.58;;
68284;SDS011;55114;52.052;5.238;2022-11-18T10:03:25;11.27;;;3.40;;
68284;SDS011;55114;52.052;5.238;2022-11-18T10:08:38;10.60;;;3.78;;
68284;SDS011;55114;52.052;5.238;2022-11-18T10:16:23;10.30;;;3.30;;
68284;SDS011;55114;52.052;5.238;2022-11-18T10:24:21;11.05;;;3.90;;
68284;SDS011;55114;52.052;5.238;2022-11-18T10:26:57;9.45;;;3.65;;
68284;SDS011;55114;52.052;5.238;2022-11-18T10:29:24;9.90;;;3.10;;
68284;SDS011;55114;52.052;5.238;2022-11-18T10:34:29;8.18;;;3.60;;
68284;SDS011;55114;52.052;5.238;2022-11-18T10:36:57;7.88;;;3.38;;
68284;SDS011;55114;52.052;5.238;2022-11-18T10:39:25;8.50;;;3.47;;
68284;SDS011;55114;52.052;5.238;2022-11-18T10:41:55;8.10;;;3.07;;
68284;SDS011;55114;52.052;5.238;2022-11-18T10:47:13;9.90;;;3.30;;
68284;SDS011;55114;52.052;5.238;2022-11-18T10:49:41;8.82;;;3.72;;
68284;SDS011;55114;52.052;5.238;2022-11-18T10:52:09;10.00;;;3.30;;
68284;SDS011;55114;52.052;5.238;2022-11-18T10:54:37;8.80;;;3.10;;
68284;SDS011;55114;52.052;5.238;2022-11-18T10:57:16;10.05;;;3.65;;
68284;SDS011;55114;52.052;5.238;2022-11-18T11:04:49;10.57;;;3.58;;
68284;SDS011;55114;52.052;5.238;2022-11-18T11:07:27;14.57;;;3.40;;
68284;SDS011;55114;52.052;5.238;2022-11-18T11:09:58;8.57;;;3.60;;
68284;SDS011;55114;52.052;5.238;2022-11-18T11:12:26;12.80;;;4.68;;
68284;SDS011;55114;52.052;5.238;2022-11-18T11:14:55;12.68;;;4.65;;
68284;SDS011;55114;52.052;5.238;2022-11-18T11:17:33;11.07;;;4.68;;
68284;SDS011;55114;52.052;5.238;2022-11-18T11:20:10;9.67;;;3.60;;
68284;SDS011;55114;52.052;5.238;2022-11-18T11:22:40;9.85;;;3.88;;
68284;SDS011;55114;52.052;5.238;2022-11-18T11:25:14;7.63;;;3.40;;
68284;SDS011;55114;52.052;5.238;2022-11-18T11:27:44;9.75;;;3.60;;
68284;SDS011;55114;52.052;5.238;2022-11-18T11:30:51;7.88;;;3.67;;
68284;SDS011;55114;52.052;5.238;2022-11-18T11:33:22;9.17;;;3.43;;
68284;SDS011;55114;52.052;5.238;2022-11-18T11:41:01;9.15;;;3.75;;
68284;SDS011;55114;52.052;5.238;2022-11-18T11:43:49;9.20;;;3.65;;
68284;SDS011;55114;52.052;5.238;2022-11-18T11:54:09;10.05;;;3.75;;
68284;SDS011;55114;52.052;5.238;2022-11-18T12:06:57;12.15;;;4.40;;
68284;SDS011;55114;52.052;5.238;2022-11-18T12:09:32;11.75;;;4.78;;
68284;SDS011;55114;52.052;5.238;2022-11-18T12:12:07;11.37;;;4.73;;
68284;SDS011;55114;52.052;5.238;2022-11-18T12:14:56;10.48;;;4.30;;
68284;SDS011;55114;52.052;5.238;2022-11-18T12:17:31;10.65;;;4.55;;
68284;SDS011;55114;52.052;5.238;2022-11-18T12:19:59;9.15;;;4.65;;
68284;SDS011;55114;52.052;5.238;2022-11-18T12:23:07;11.65;;;4.35;;
68284;SDS011;55114;52.052;5.238;2022-11-18T12:28:02;16.10;;;7.03;;
68284;SDS011;55114;52.052;5.238;2022-11-18T12:30:29;14.85;;;6.55;;
68284;SDS011;55114;52.052;5.238;2022-11-18T12:32:57;11.90;;;5.60;;
68284;SDS011;55114;52.052;5.238;2022-11-18T12:35:26;12.88;;;5.80;;
68284;SDS011;55114;52.052;5.238;2022-11-18T12:40:35;11.80;;;6.00;;
68284;SDS011;55114;52.052;5.238;2022-11-18T12:43:10;16.08;;;6.63;;
68284;SDS011;55114;52.052;5.238;2022-11-18T12:46:09;16.55;;;6.97;;
68284;SDS011;55114;52.052;5.238;2022-11-18T12:48:37;14.13;;;7.43;;
68284;SDS011;55114;52.052;5.238;2022-11-18T12:53:42;12.07;;;6.88;;
68284;SDS011;55114;52.052;5.238;2022-11-18T12:58:43;17.30;;;7.18;;
68284;SDS011;55114;52.052;5.238;2022-11-18T13:01:11;17.40;;;7.03;;
68284;SDS011;55114;52.052;5.238;2022-11-18T13:03:39;15.77;;;6.80;;
68284;SDS011;55114;52.052;5.238;2022-11-18T13:06:11;13.73;;;6.70;;
68284;SDS011;55114;52.052;5.238;2022-11-18T13:08:41;14.98;;;6.60;;
68284;SDS011;55114;52.052;5.238;2022-11-18T13:11:09;12.98;;;6.15;;
68284;SDS011;55114;52.052;5.238;2022-11-18T13:13:59;12.45;;;6.10;;
68284;SDS011;55114;52.052;5.238;2022-11-18T13:16:46;14.10;;;5.87;;
68284;SDS011;55114;52.052;5.238;2022-11-18T13:19:33;15.88;;;6.05;;
68284;SDS011;55114;52.052;5.238;2022-11-18T13:22:00;13.50;;;5.97;;
68284;SDS011;55114;52.052;5.238;2022-11-18T13:24:48;11.88;;;5.57;;
68284;SDS011;55114;52.052;5.238;2022-11-18T13:27:24;11.95;;;5.70;;
68284;SDS011;55114;52.052;5.238;2022-11-18T13:29:55;10.83;;;5.50;;
68284;SDS011;55114;52.052;5.238;2022-11-18T13:32:26;11.75;;;6.00;;
68284;SDS011;55114;52.052;5.238;2022-11-18T13:34:55;13.73;;;6.32;;
68284;SDS011;55114;52.052;5.238;2022-11-18T13:37:27;13.38;;;6.00;;
68284;SDS011;55114;52.052;5.238;2022-11-18T13:39:54;14.55;;;6.72;;
68284;SDS011;55114;52.052;5.238;2022-11-18T13:42:22;13.23;;;6.27;;
68284;SDS011;55114;52.052;5.238;2022-11-18T13:44:51;12.00;;;5.57;;
68284;SDS011;55114;52.052;5.238;2022-11-18T13:49:58;9.43;;;5.55;;
68284;SDS011;55114;52.052;5.238;2022-11-18T13:52:36;11.88;;;5.47;;
68284;SDS011;55114;52.052;5.238;2022-11-18T13:55:13;12.27;;;5.50;;
68284;SDS011;55114;52.052;5.238;2022-11-18T13:58:10;17.58;;;5.80;;
68284;SDS011;55114;52.052;5.238;2022-11-18T14:00:34;13.18;;;6.22;;
68284;SDS011;55114;52.052;5.238;2022-11-18T14:03:03;13.13;;;6.47;;
68284;SDS011;55114;52.052;5.238;2022-11-18T14:05:31;14.52;;;5.78;;
68284;SDS011;55114;52.052;5.238;2022-11-18T14:08:05;13.57;;;5.90;;
68284;SDS011;55114;52.052;5.238;2022-11-18T14:10:38;13.32;;;5.57;;
68284;SDS011;55114;52.052;5.238;2022-11-18T14:15:58;12.57;;;5.88;;
68284;SDS011;55114;52.052;5.238;2022-11-18T14:18:35;12.00;;;5.70;;
68284;SDS011;55114;52.052;5.238;2022-11-18T14:21:03;14.80;;;5.67;;
68284;SDS011;55114;52.052;5.238;2022-11-18T14:23:32;14.00;;;5.88;;
68284;SDS011;55114;52.052;5.238;2022-11-18T14:26:00;11.93;;;5.57;;
68284;SDS011;55114;52.052;5.238;2022-11-18T14:28:28;13.48;;;5.60;;
68284;SDS011;55114;52.052;5.238;2022-11-18T14:33:30;11.83;;;5.87;;
68284;SDS011;55114;52.052;5.238;2022-11-18T14:38:29;10.88;;;5.10;;
68284;SDS011;55114;52.052;5.238;2022-11-18T14:41:18;10.02;;;4.90;;
68284;SDS011;55114;52.052;5.238;2022-11-18T14:44:09;12.25;;;5.13;;
68284;SDS011;55114;52.052;5.238;2022-11-18T14:46:39;10.83;;;5.23;;
68284;SDS011;55114;52.052;5.238;2022-11-18T14:49:10;10.70;;;5.18;;
68284;SDS011;55114;52.052;5.238;2022-11-18T14:51:38;13.25;;;5.10;;
68284;SDS011;55114;52.052;5.238;2022-11-18T14:54:05;10.65;;;5.10;;
68284;SDS011;55114;52.052;5.238;2022-11-18T14:56:33;10.07;;;5.25;;
68284;SDS011;55114;52.052;5.238;2022-11-18T14:59:00;13.13;;;5.00;;
68284;SDS011;55114;52.052;5.238;2022-11-18T15:01:27;9.40;;;4.72;;
68284;SDS011;55114;52.052;5.238;2022-11-18T15:03:56;12.30;;;5.28;;
68284;SDS011;55114;52.052;5.238;2022-11-18T15:06:23;11.18;;;5.30;;
68284;SDS011;55114;52.052;5.238;2022-11-18T15:08:51;11.88;;;5.28;;
68284;SDS011;55114;52.052;5.238;2022-11-18T15:11:18;12.27;;;5.10;;
68284;SDS011;55114;52.052;5.238;2022-11-18T15:13:46;12.93;;;5.28;;
68284;SDS011;55114;52.052;5.238;2022-11-18T15:16:20;9.60;;;5.13;;
68284;SDS011;55114;52.052;5.238;2022-11-18T15:18:49;11.18;;;6.20;;
68284;SDS011;55114;52.052;5.238;2022-11-18T15:21:16;12.10;;;5.28;;
68284;SDS011;55114;52.052;5.238;2022-11-18T15:23:44;14.77;;;5.00;;
68284;SDS011;55114;52.052;5.238;2022-11-18T15:28:42;11.60;;;5.22;;
68284;SDS011;55114;52.052;5.238;2022-11-18T15:31:09;11.75;;;5.47;;
68284;SDS011;55114;52.052;5.238;2022-11-18T15:33:37;12.25;;;5.20;;
68284;SDS011;55114;52.052;5.238;2022-11-18T15:36:05;14.03;;;5.20;;
68284;SDS011;55114;52.052;5.238;2022-11-18T15:38:35;10.05;;;4.97;;
68284;SDS011;55114;52.052;5.238;2022-11-18T15:41:02;10.88;;;5.32;;
68284;SDS011;55114;52.052;5.238;2022-11-18T15:43:29;11.48;;;5.32;;
68284;SDS011;55114;52.052;5.238;2022-11-18T15:45:57;13.68;;;5.90;;
68284;SDS011;55114;52.052;5.238;2022-11-18T15:48:24;13.77;;;5.60;;
68284;SDS011;55114;52.052;5.238;2022-11-18T15:50:52;10.95;;;4.80;;
68284;SDS011;55114;52.052;5.238;2022-11-18T15:53:19;10.80;;;4.93;;
68284;SDS011;55114;52.052;5.238;2022-11-18T15:55:47;9.88;;;5.20;;
68284;SDS011;55114;52.052;5.238;2022-11-18T15:58:14;10.45;;;4.63;;
68284;SDS011;55114;52.052;5.238;2022-11-18T16:00:42;12.23;;;4.63;;
68284;SDS011;55114;52.052;5.238;2022-11-18T16:03:10;12.40;;;5.10;;
68284;SDS011;55114;52.052;5.238;2022-11-18T16:05:37;9.75;;;4.55;;
68284;SDS011;55114;52.052;5.238;2022-11-18T16:08:04;10.90;;;5.07;;
68284;SDS011;55114;52.052;5.238;2022-11-18T16:10:31;10.13;;;4.70;;
68284;SDS011;55114;52.052;5.238;2022-11-18T16:13:19;10.83;;;4.83;;
68284;SDS011;55114;52.052;5.238;2022-11-18T16:15:46;11.75;;;4.47;;
68284;SDS011;55114;52.052;5.238;2022-11-18T16:18:15;12.98;;;5.15;;
68284;SDS011;55114;52.052;5.238;2022-11-18T16:20:44;11.85;;;5.20;;
68284;SDS011;55114;52.052;5.238;2022-11-18T16:23:11;13.20;;;6.10;;
68284;SDS011;55114;52.052;5.238;2022-11-18T16:25:42;14.13;;;6.23;;
68284;SDS011;55114;52.052;5.238;2022-11-18T16:28:11;14.65;;;6.28;;
68284;SDS011;55114;52.052;5.238;2022-11-18T16:30:38;13.18;;;6.25;;
68284;SDS011;55114;52.052;5.238;2022-11-18T16:33:24;16.77;;;7.25;;
68284;SDS011;55114;52.052;5.238;2022-11-18T16:35:51;15.80;;;6.70;;
68284;SDS011;55114;52.052;5.238;2022-11-18T16:38:18;20.10;;;7.23;;
68284;SDS011;55114;52.052;5.238;2022-11-18T16:40:46;12.60;;;6.28;;